AirNav   ATP
 
 924 users online  

2AL3 Emerald Mountain Airport
Wetumpka, Alabama, USA

GOING TO WETUMPKA?


FAA INFORMATION EFFECTIVE 20 JULY 2017

Location

FAA Identifier: 2AL3
Lat/Long: 32-27-19.4910N / 086-07-09.0000W
32-27.324850N / 086-07.150000W
32.4554142 / -86.1191667
(estimated)
Elevation: 365 ft. / 111 m (estimated)
Variation: 01W (1990)
From city: 7 miles SE of WETUMPKA, AL
Time zone: UTC -5 (UTC -6 during Standard Time)
Zip code: 36093

Airport Operations

Airport use: Private use. Permission required prior to landing
Activation date: 01/1994
Control tower: no
ARTCC: ATLANTA CENTER
FSS: ANNISTON FLIGHT SERVICE STATION
Attendance: UNATNDD
Wind indicator: lighted
Segmented circle: no
Lights: ACTVT LIRL RY 06/24 - UNICOM.

Airport Communications

UNICOM: 122.8
WX ASOS at MGM (17 nm SW): PHONE 334-288-0445
WX AWOS-3P at 1A9 (20 nm W): 118.025 (334-358-0919)

Nearby radio navigation aids

VOR radial/distance  VOR name  Freq  Var
MGMr033/17.3MONTGOMERY VORTAC112.1003E
TGEr264/22.8TUSKEGEE VOR/DME117.3002E

 
NDB name  Hdg/Dist  Freq  Var  ID
GRAGG-WADE133/34.533801EGGY --. --. -.--
BLOOD360/37.536501WTOI - --- ..

Airport Services

Runway Information

Runway 6/24

Dimensions: 2750 x 80 ft. / 838 x 24 m
Surface: turf, in good condition
Runway edge lights: low intensity
RUNWAY 6  RUNWAY 24
Traffic pattern: leftleft
Obstructions: 60 ft. tree, 540 ft. from runway60 ft. tree, 1500 ft. from runway

Airport Ownership and Management from official FAA records

Ownership: Privately-owned
Owner: SIM ALLEN
407 PEACE CHURCH RD
WETUMPKA, AL 36092
Phone 205-267-0700
Manager: SIM ALLEN
407 PEACE CHURCH RD
WETUMPKA, AL 36092
Phone 205-267-0700

Airport Operational Statistics

Aircraft based on the field: 1
Single engine airplanes: 1
    

Instrument Procedures

There are no published instrument procedures at 2AL3.

Some nearby airports with instrument procedures:

08A - Wetumpka Municipal Airport (12 nm W)
KMXF - Maxwell Air Force Base (13 nm W)
KMGM - Montgomery Regional Airport (Dannelly Field) (17 nm SW)
1A9 - Prattville Airport - Grouby Field (20 nm W)
06A - Moton Field Municipal Airport (22 nm E)
 
Loc | Ops | Rwys | IFR | FBO | Links
Com | Nav | Svcs | Stats | Notes


 
Area around 2AL3 (Emerald Mountain Airport)
 
Road maps at: MapQuest Bing Google
 
Aerial photo
No photo
 
Sectional chart

 
Airport distance calculator
Flying to Emerald Mountain Airport? Find the distance to fly.

From to 2AL3

Sunrise and sunset
Times for 20-Jul-2017
 Local
(UTC-5)
 Zulu
(UTC)
Morning civil twilight05:2410:24
Sunrise05:5210:52
Sunset19:5000:50
Evening civil twilight20:1701:17

Current date and time
Zulu (UTC)  21-Jul-2017 01:08:17
Local (UTC-5)  20-Jul-2017 20:08:17
 
METAR
KMXF 
14nm SW 
210058Z AUTO 00000KT 10SM SCT230 28/25 A3002 RMK AO2 SLP167 T02800246
KMGM 
17nm SW 
210053Z 36003KT 10SM CLR 29/23 A3003 RMK AO2 SLP164 T02940228
K1A9 
20nm W 
210055Z AUTO 00000KT 10SM BKN100 27/24 A3002 RMK AO2 T02690235
TAF
KMXF 
14nm SW 
201900Z 2019/2201 02009KT 9999 VCSH SCT060 BKN250 QNH3005INS BECMG 2020/2021 32006KT 8000 -SHRA BKN050 BKN250 QNH3002INS TEMPO 2021/2102 35015G20KT 4800 -TSRA OVC040CB BECMG 2101/2102 31006KT 9999 NSW SCT030 BKN050 BKN250 QNH2999INS BECMG 2114/2115 20006KT 9999 BKN030 BKN200 QNH3002INS BECMG 2117/2118 18009KT 9999 VCTS BKN050CB BKN250 QNH3005INS BECMG 2123/2124 20009KT 9999 NSW BKN030 BKN250 QNH3003INS TX35/2020Z TN24/2111Z LAST NO AMDS AFT 2103 NEXT 2111
KMGM 
17nm SW 
201728Z 2018/2118 33005KT P6SM SCT050 FM210000 00000KT P6SM SCT250 FM211000 00000KT 4SM BR SKC FM211300 VRB03KT P6SM SKC
NOTAMs
Click for the latest NOTAMs
NOTAMs are issued by the DoD/FAA and will open in a separate window not controlled by AirNav.

 

 
 

Would you like to see your business listed on this page?

 If your business provides an interesting product or service to pilots, flight crews, aircraft, or users of the Emerald Mountain Airport, you should consider listing it here.  To start the listing process, click on the button below
 
Add a business
 

Other Pages about Emerald Mountain Airport

Update a link
 
Copyright © AirNav, LLC. All rights reserved. Privacy Policy  Contact